sensor_id;sensor_type;location;lat;lon;timestamp;P1;durP1;ratioP1;P2;durP2;ratioP2
6517;SDS011;3292;48.944;9.240;2023-04-12T00:00:42;7.30;;;3.40;;
6517;SDS011;3292;48.944;9.240;2023-04-12T00:03:10;5.83;;;3.43;;
6517;SDS011;3292;48.944;9.240;2023-04-12T00:05:36;8.30;;;3.57;;
6517;SDS011;3292;48.944;9.240;2023-04-12T00:08:03;5.93;;;3.13;;
6517;SDS011;3292;48.944;9.240;2023-04-12T00:10:30;6.37;;;3.33;;
6517;SDS011;3292;48.944;9.240;2023-04-12T00:12:58;6.47;;;3.27;;
6517;SDS011;3292;48.944;9.240;2023-04-12T00:15:26;7.13;;;3.40;;
6517;SDS011;3292;48.944;9.240;2023-04-12T00:17:53;4.37;;;3.27;;
6517;SDS011;3292;48.944;9.240;2023-04-12T00:20:19;7.23;;;3.97;;
6517;SDS011;3292;48.944;9.240;2023-04-12T00:22:46;5.60;;;3.73;;
6517;SDS011;3292;48.944;9.240;2023-04-12T00:25:13;5.50;;;3.03;;
6517;SDS011;3292;48.944;9.240;2023-04-12T00:27:40;6.47;;;3.97;;
6517;SDS011;3292;48.944;9.240;2023-04-12T00:30:08;4.63;;;3.50;;
6517;SDS011;3292;48.944;9.240;2023-04-12T00:32:36;4.73;;;3.23;;
6517;SDS011;3292;48.944;9.240;2023-04-12T00:35:03;8.10;;;3.43;;
6517;SDS011;3292;48.944;9.240;2023-04-12T00:37:30;5.37;;;3.37;;
6517;SDS011;3292;48.944;9.240;2023-04-12T00:39:57;6.30;;;3.60;;
6517;SDS011;3292;48.944;9.240;2023-04-12T00:42:23;6.97;;;3.40;;
6517;SDS011;3292;48.944;9.240;2023-04-12T00:44:51;7.60;;;3.83;;
6517;SDS011;3292;48.944;9.240;2023-04-12T00:47:19;6.73;;;3.47;;
6517;SDS011;3292;48.944;9.240;2023-04-12T00:49:46;6.77;;;3.70;;
6517;SDS011;3292;48.944;9.240;2023-04-12T00:52:13;5.03;;;3.47;;
6517;SDS011;3292;48.944;9.240;2023-04-12T00:54:42;6.17;;;3.70;;
6517;SDS011;3292;48.944;9.240;2023-04-12T00:57:09;7.20;;;3.97;;
6517;SDS011;3292;48.944;9.240;2023-04-12T00:59:36;6.47;;;3.83;;
6517;SDS011;3292;48.944;9.240;2023-04-12T01:02:03;9.00;;;4.00;;
6517;SDS011;3292;48.944;9.240;2023-04-12T01:04:32;5.67;;;3.43;;
6517;SDS011;3292;48.944;9.240;2023-04-12T01:07:04;6.50;;;3.70;;
6517;SDS011;3292;48.944;9.240;2023-04-12T01:09:41;7.13;;;4.17;;
6517;SDS011;3292;48.944;9.240;2023-04-12T01:12:15;5.67;;;3.60;;
6517;SDS011;3292;48.944;9.240;2023-04-12T01:15:01;4.73;;;3.20;;
6517;SDS011;3292;48.944;9.240;2023-04-12T01:17:34;5.73;;;3.80;;
6517;SDS011;3292;48.944;9.240;2023-04-12T01:20:06;7.33;;;3.80;;
6517;SDS011;3292;48.944;9.240;2023-04-12T01:22:52;6.07;;;3.87;;
6517;SDS011;3292;48.944;9.240;2023-04-12T01:25:44;5.07;;;3.37;;
6517;SDS011;3292;48.944;9.240;2023-04-12T01:28:34;6.20;;;3.70;;
6517;SDS011;3292;48.944;9.240;2023-04-12T01:31:06;8.83;;;3.97;;
6517;SDS011;3292;48.944;9.240;2023-04-12T01:33:33;7.53;;;3.93;;
6517;SDS011;3292;48.944;9.240;2023-04-12T01:36:06;5.77;;;3.23;;
6517;SDS011;3292;48.944;9.240;2023-04-12T01:38:37;8.20;;;4.10;;
6517;SDS011;3292;48.944;9.240;2023-04-12T01:41:05;5.47;;;3.30;;
6517;SDS011;3292;48.944;9.240;2023-04-12T01:43:34;8.63;;;4.33;;
6517;SDS011;3292;48.944;9.240;2023-04-12T01:46:06;5.83;;;3.40;;
6517;SDS011;3292;48.944;9.240;2023-04-12T01:48:33;4.83;;;3.40;;
6517;SDS011;3292;48.944;9.240;2023-04-12T01:51:03;3.60;;;3.27;;
6517;SDS011;3292;48.944;9.240;2023-04-12T01:53:32;5.77;;;3.50;;
6517;SDS011;3292;48.944;9.240;2023-04-12T01:56:08;7.33;;;3.97;;
6517;SDS011;3292;48.944;9.240;2023-04-12T01:58:38;7.63;;;3.47;;
6517;SDS011;3292;48.944;9.240;2023-04-12T02:01:07;5.73;;;4.07;;
6517;SDS011;3292;48.944;9.240;2023-04-12T02:03:36;5.83;;;3.77;;
6517;SDS011;3292;48.944;9.240;2023-04-12T02:06:06;4.70;;;3.20;;
6517;SDS011;3292;48.944;9.240;2023-04-12T02:08:34;5.60;;;3.17;;
6517;SDS011;3292;48.944;9.240;2023-04-12T02:11:06;7.87;;;3.40;;
6517;SDS011;3292;48.944;9.240;2023-04-12T02:13:34;7.27;;;3.40;;
6517;SDS011;3292;48.944;9.240;2023-04-12T02:16:02;8.20;;;3.73;;
6517;SDS011;3292;48.944;9.240;2023-04-12T02:18:31;7.83;;;3.07;;
6517;SDS011;3292;48.944;9.240;2023-04-12T02:20:59;7.43;;;3.50;;
6517;SDS011;3292;48.944;9.240;2023-04-12T02:23:26;4.90;;;3.47;;
6517;SDS011;3292;48.944;9.240;2023-04-12T02:25:52;4.23;;;3.03;;
6517;SDS011;3292;48.944;9.240;2023-04-12T02:28:19;4.83;;;3.30;;
6517;SDS011;3292;48.944;9.240;2023-04-12T02:30:47;4.77;;;2.70;;
6517;SDS011;3292;48.944;9.240;2023-04-12T02:33:18;6.30;;;3.07;;
6517;SDS011;3292;48.944;9.240;2023-04-12T02:35:49;8.77;;;3.53;;
6517;SDS011;3292;48.944;9.240;2023-04-12T02:38:16;4.77;;;3.00;;
6517;SDS011;3292;48.944;9.240;2023-04-12T02:40:42;6.30;;;3.07;;
6517;SDS011;3292;48.944;9.240;2023-04-12T02:43:09;6.30;;;3.37;;
6517;SDS011;3292;48.944;9.240;2023-04-12T02:45:36;6.53;;;3.73;;
6517;SDS011;3292;48.944;9.240;2023-04-12T02:48:03;7.73;;;3.47;;
6517;SDS011;3292;48.944;9.240;2023-04-12T02:50:32;4.93;;;3.60;;
6517;SDS011;3292;48.944;9.240;2023-04-12T02:52:59;6.23;;;3.63;;
6517;SDS011;3292;48.944;9.240;2023-04-12T02:55:25;5.23;;;3.80;;
6517;SDS011;3292;48.944;9.240;2023-04-12T02:57:54;6.40;;;3.40;;
6517;SDS011;3292;48.944;9.240;2023-04-12T03:00:21;6.30;;;3.70;;
6517;SDS011;3292;48.944;9.240;2023-04-12T03:02:48;8.13;;;3.77;;
6517;SDS011;3292;48.944;9.240;2023-04-12T03:05:15;7.90;;;3.40;;
6517;SDS011;3292;48.944;9.240;2023-04-12T03:07:44;5.83;;;3.83;;
6517;SDS011;3292;48.944;9.240;2023-04-12T03:10:11;6.53;;;3.87;;
6517;SDS011;3292;48.944;9.240;2023-04-12T03:12:38;6.73;;;3.47;;
6517;SDS011;3292;48.944;9.240;2023-04-12T03:15:05;6.40;;;3.40;;
6517;SDS011;3292;48.944;9.240;2023-04-12T03:17:33;7.67;;;3.97;;
6517;SDS011;3292;48.944;9.240;2023-04-12T03:20:02;4.63;;;3.80;;
6517;SDS011;3292;48.944;9.240;2023-04-12T03:22:31;6.50;;;3.77;;
6517;SDS011;3292;48.944;9.240;2023-04-12T03:24:59;5.13;;;3.60;;
6517;SDS011;3292;48.944;9.240;2023-04-12T03:27:26;6.87;;;3.73;;
6517;SDS011;3292;48.944;9.240;2023-04-12T03:29:53;7.17;;;3.70;;
6517;SDS011;3292;48.944;9.240;2023-04-12T03:32:20;7.70;;;3.67;;
6517;SDS011;3292;48.944;9.240;2023-04-12T03:34:47;6.07;;;3.60;;
6517;SDS011;3292;48.944;9.240;2023-04-12T03:37:15;4.93;;;3.40;;
6517;SDS011;3292;48.944;9.240;2023-04-12T03:39:41;7.57;;;3.57;;
6517;SDS011;3292;48.944;9.240;2023-04-12T03:42:13;7.20;;;3.73;;
6517;SDS011;3292;48.944;9.240;2023-04-12T03:44:40;6.40;;;3.57;;
6517;SDS011;3292;48.944;9.240;2023-04-12T03:47:06;5.57;;;3.50;;
6517;SDS011;3292;48.944;9.240;2023-04-12T03:49:33;4.97;;;3.23;;
6517;SDS011;3292;48.944;9.240;2023-04-12T03:52:02;8.83;;;3.43;;
6517;SDS011;3292;48.944;9.240;2023-04-12T03:54:30;4.33;;;3.30;;
6517;SDS011;3292;48.944;9.240;2023-04-12T03:56:56;6.73;;;3.73;;
6517;SDS011;3292;48.944;9.240;2023-04-12T03:59:25;8.07;;;3.37;;
6517;SDS011;3292;48.944;9.240;2023-04-12T04:01:51;7.23;;;3.47;;
6517;SDS011;3292;48.944;9.240;2023-04-12T04:04:20;4.90;;;3.27;;
6517;SDS011;3292;48.944;9.240;2023-04-12T04:06:47;4.87;;;3.30;;
6517;SDS011;3292;48.944;9.240;2023-04-12T04:09:14;5.13;;;3.43;;
6517;SDS011;3292;48.944;9.240;2023-04-12T04:11:41;3.87;;;3.07;;
6517;SDS011;3292;48.944;9.240;2023-04-12T04:14:08;5.97;;;4.10;;
6517;SDS011;3292;48.944;9.240;2023-04-12T04:16:36;6.00;;;3.27;;
6517;SDS011;3292;48.944;9.240;2023-04-12T04:19:03;4.63;;;3.33;;
6517;SDS011;3292;48.944;9.240;2023-04-12T04:21:30;4.60;;;3.40;;
6517;SDS011;3292;48.944;9.240;2023-04-12T04:23:57;5.13;;;3.30;;
6517;SDS011;3292;48.944;9.240;2023-04-12T04:26:26;6.40;;;3.80;;
6517;SDS011;3292;48.944;9.240;2023-04-12T04:28:57;4.90;;;3.53;;
6517;SDS011;3292;48.944;9.240;2023-04-12T04:31:27;7.83;;;3.90;;
6517;SDS011;3292;48.944;9.240;2023-04-12T04:33:59;7.57;;;3.67;;
6517;SDS011;3292;48.944;9.240;2023-04-12T04:36:27;5.20;;;3.20;;
6517;SDS011;3292;48.944;9.240;2023-04-12T04:38:54;4.70;;;3.30;;
6517;SDS011;3292;48.944;9.240;2023-04-12T04:41:21;5.53;;;3.57;;
6517;SDS011;3292;48.944;9.240;2023-04-12T04:43:48;3.93;;;3.60;;
6517;SDS011;3292;48.944;9.240;2023-04-12T04:46:15;4.27;;;3.33;;
6517;SDS011;3292;48.944;9.240;2023-04-12T04:48:46;6.17;;;3.27;;
6517;SDS011;3292;48.944;9.240;2023-04-12T04:51:14;5.90;;;3.87;;
6517;SDS011;3292;48.944;9.240;2023-04-12T04:53:41;5.17;;;3.23;;
6517;SDS011;3292;48.944;9.240;2023-04-12T04:56:08;4.27;;;3.23;;
6517;SDS011;3292;48.944;9.240;2023-04-12T04:58:35;4.03;;;3.40;;
6517;SDS011;3292;48.944;9.240;2023-04-12T05:01:03;3.70;;;3.13;;
6517;SDS011;3292;48.944;9.240;2023-04-12T05:03:31;7.20;;;4.10;;
6517;SDS011;3292;48.944;9.240;2023-04-12T05:05:58;6.07;;;3.40;;
6517;SDS011;3292;48.944;9.240;2023-04-12T05:08:27;5.07;;;3.60;;
6517;SDS011;3292;48.944;9.240;2023-04-12T05:10:55;4.13;;;3.27;;
6517;SDS011;3292;48.944;9.240;2023-04-12T05:13:22;3.80;;;3.30;;
6517;SDS011;3292;48.944;9.240;2023-04-12T05:15:49;4.20;;;2.93;;
6517;SDS011;3292;48.944;9.240;2023-04-12T05:18:16;4.93;;;2.97;;
6517;SDS011;3292;48.944;9.240;2023-04-12T05:20:43;4.37;;;3.10;;
6517;SDS011;3292;48.944;9.240;2023-04-12T05:23:12;3.53;;;2.90;;
6517;SDS011;3292;48.944;9.240;2023-04-12T05:25:43;3.67;;;3.27;;
6517;SDS011;3292;48.944;9.240;2023-04-12T05:28:12;5.27;;;3.40;;
6517;SDS011;3292;48.944;9.240;2023-04-12T05:30:40;4.40;;;3.17;;
6517;SDS011;3292;48.944;9.240;2023-04-12T05:33:07;3.80;;;3.30;;
6517;SDS011;3292;48.944;9.240;2023-04-12T05:35:34;7.17;;;3.73;;
6517;SDS011;3292;48.944;9.240;2023-04-12T05:38:01;5.77;;;3.40;;
6517;SDS011;3292;48.944;9.240;2023-04-12T05:40:28;3.60;;;3.30;;
6517;SDS011;3292;48.944;9.240;2023-04-12T05:42:58;4.33;;;3.13;;
6517;SDS011;3292;48.944;9.240;2023-04-12T05:45:24;4.97;;;3.00;;
6517;SDS011;3292;48.944;9.240;2023-04-12T05:47:51;5.10;;;3.07;;
6517;SDS011;3292;48.944;9.240;2023-04-12T05:50:18;3.87;;;2.90;;
6517;SDS011;3292;48.944;9.240;2023-04-12T05:52:45;4.27;;;2.93;;
6517;SDS011;3292;48.944;9.240;2023-04-12T05:55:13;3.87;;;3.20;;
6517;SDS011;3292;48.944;9.240;2023-04-12T05:57:43;4.77;;;2.87;;
6517;SDS011;3292;48.944;9.240;2023-04-12T06:00:13;3.73;;;2.60;;
6517;SDS011;3292;48.944;9.240;2023-04-12T06:02:42;2.63;;;2.43;;
6517;SDS011;3292;48.944;9.240;2023-04-12T06:05:09;2.73;;;2.50;;
6517;SDS011;3292;48.944;9.240;2023-04-12T06:07:37;3.23;;;2.93;;
6517;SDS011;3292;48.944;9.240;2023-04-12T06:10:04;5.10;;;3.80;;
6517;SDS011;3292;48.944;9.240;2023-04-12T06:12:32;3.47;;;3.17;;
6517;SDS011;3292;48.944;9.240;2023-04-12T06:14:58;11.00;;;3.83;;
6517;SDS011;3292;48.944;9.240;2023-04-12T06:17:27;4.33;;;3.40;;
6517;SDS011;3292;48.944;9.240;2023-04-12T06:19:54;4.23;;;3.20;;
6517;SDS011;3292;48.944;9.240;2023-04-12T06:22:20;5.40;;;3.50;;
6517;SDS011;3292;48.944;9.240;2023-04-12T06:24:47;3.00;;;2.70;;
6517;SDS011;3292;48.944;9.240;2023-04-12T06:27:14;3.67;;;2.63;;
6517;SDS011;3292;48.944;9.240;2023-04-12T06:29:41;3.40;;;2.70;;
6517;SDS011;3292;48.944;9.240;2023-04-12T06:32:08;6.73;;;3.00;;
6517;SDS011;3292;48.944;9.240;2023-04-12T06:34:36;3.60;;;3.10;;
6517;SDS011;3292;48.944;9.240;2023-04-12T06:37:03;3.93;;;3.00;;
6517;SDS011;3292;48.944;9.240;2023-04-12T06:39:30;3.73;;;3.00;;
6517;SDS011;3292;48.944;9.240;2023-04-12T06:41:57;7.20;;;2.87;;
6517;SDS011;3292;48.944;9.240;2023-04-12T06:44:23;5.10;;;3.07;;
6517;SDS011;3292;48.944;9.240;2023-04-12T06:46:51;2.93;;;2.73;;
6517;SDS011;3292;48.944;9.240;2023-04-12T06:49:18;3.03;;;2.80;;
6517;SDS011;3292;48.944;9.240;2023-04-12T06:51:46;4.27;;;3.00;;
6517;SDS011;3292;48.944;9.240;2023-04-12T06:54:13;4.80;;;3.20;;
6517;SDS011;3292;48.944;9.240;2023-04-12T06:56:40;3.90;;;3.40;;
6517;SDS011;3292;48.944;9.240;2023-04-12T06:59:07;4.73;;;3.10;;
6517;SDS011;3292;48.944;9.240;2023-04-12T07:01:34;4.60;;;3.03;;
6517;SDS011;3292;48.944;9.240;2023-04-12T07:04:00;3.97;;;2.70;;
6517;SDS011;3292;48.944;9.240;2023-04-12T07:06:28;2.67;;;2.47;;
6517;SDS011;3292;48.944;9.240;2023-04-12T07:08:57;3.13;;;2.60;;
6517;SDS011;3292;48.944;9.240;2023-04-12T07:11:23;2.60;;;2.40;;
6517;SDS011;3292;48.944;9.240;2023-04-12T07:13:51;3.10;;;2.80;;
6517;SDS011;3292;48.944;9.240;2023-04-12T07:16:19;3.70;;;2.90;;
6517;SDS011;3292;48.944;9.240;2023-04-12T07:18:46;3.60;;;2.90;;
6517;SDS011;3292;48.944;9.240;2023-04-12T07:21:13;3.00;;;2.70;;
6517;SDS011;3292;48.944;9.240;2023-04-12T07:23:41;5.07;;;3.60;;
6517;SDS011;3292;48.944;9.240;2023-04-12T07:26:09;3.07;;;2.83;;
6517;SDS011;3292;48.944;9.240;2023-04-12T07:28:36;3.60;;;2.70;;
6517;SDS011;3292;48.944;9.240;2023-04-12T07:31:03;5.03;;;3.10;;
6517;SDS011;3292;48.944;9.240;2023-04-12T07:33:31;3.10;;;2.80;;
6517;SDS011;3292;48.944;9.240;2023-04-12T07:35:59;3.20;;;2.90;;
6517;SDS011;3292;48.944;9.240;2023-04-12T07:38:26;3.10;;;2.53;;
6517;SDS011;3292;48.944;9.240;2023-04-12T07:40:53;3.40;;;2.80;;
6517;SDS011;3292;48.944;9.240;2023-04-12T07:43:22;3.30;;;2.83;;
6517;SDS011;3292;48.944;9.240;2023-04-12T07:45:49;3.67;;;2.40;;
6517;SDS011;3292;48.944;9.240;2023-04-12T07:48:16;2.60;;;2.40;;
6517;SDS011;3292;48.944;9.240;2023-04-12T07:50:43;3.43;;;2.50;;
6517;SDS011;3292;48.944;9.240;2023-04-12T07:53:17;3.03;;;2.70;;
6517;SDS011;3292;48.944;9.240;2023-04-12T07:55:45;2.60;;;2.40;;
6517;SDS011;3292;48.944;9.240;2023-04-12T07:58:12;3.60;;;2.37;;
6517;SDS011;3292;48.944;9.240;2023-04-12T08:00:41;2.53;;;2.33;;
6517;SDS011;3292;48.944;9.240;2023-04-12T08:03:07;3.77;;;2.53;;
6517;SDS011;3292;48.944;9.240;2023-04-12T08:05:36;2.70;;;2.40;;
6517;SDS011;3292;48.944;9.240;2023-04-12T08:08:06;2.77;;;2.43;;
6517;SDS011;3292;48.944;9.240;2023-04-12T08:10:34;3.30;;;2.40;;
6517;SDS011;3292;48.944;9.240;2023-04-12T08:13:01;2.70;;;2.30;;
6517;SDS011;3292;48.944;9.240;2023-04-12T08:15:28;3.00;;;2.47;;
6517;SDS011;3292;48.944;9.240;2023-04-12T08:17:57;2.97;;;2.67;;
6517;SDS011;3292;48.944;9.240;2023-04-12T08:20:24;2.97;;;2.20;;
6517;SDS011;3292;48.944;9.240;2023-04-12T08:22:50;2.90;;;2.20;;
6517;SDS011;3292;48.944;9.240;2023-04-12T08:25:18;3.90;;;2.17;;
6517;SDS011;3292;48.944;9.240;2023-04-12T08:27:47;3.90;;;2.40;;
6517;SDS011;3292;48.944;9.240;2023-04-12T08:30:15;2.40;;;2.20;;
6517;SDS011;3292;48.944;9.240;2023-04-12T08:32:43;3.20;;;2.10;;
6517;SDS011;3292;48.944;9.240;2023-04-12T08:35:11;3.53;;;2.50;;
6517;SDS011;3292;48.944;9.240;2023-04-12T08:37:39;3.43;;;2.60;;
6517;SDS011;3292;48.944;9.240;2023-04-12T08:40:06;2.87;;;2.37;;
6517;SDS011;3292;48.944;9.240;2023-04-12T08:42:33;4.00;;;2.57;;
6517;SDS011;3292;48.944;9.240;2023-04-12T08:45:05;2.63;;;2.30;;
6517;SDS011;3292;48.944;9.240;2023-04-12T08:47:33;2.50;;;2.30;;
6517;SDS011;3292;48.944;9.240;2023-04-12T08:50:02;2.53;;;2.33;;
6517;SDS011;3292;48.944;9.240;2023-04-12T08:52:34;3.93;;;2.37;;
6517;SDS011;3292;48.944;9.240;2023-04-12T08:55:02;2.60;;;2.40;;
6517;SDS011;3292;48.944;9.240;2023-04-12T08:57:30;4.17;;;2.50;;
6517;SDS011;3292;48.944;9.240;2023-04-12T08:59:58;3.10;;;2.77;;
6517;SDS011;3292;48.944;9.240;2023-04-12T09:02:26;2.50;;;2.30;;
6517;SDS011;3292;48.944;9.240;2023-04-12T09:04:53;3.30;;;2.20;;
6517;SDS011;3292;48.944;9.240;2023-04-12T09:07:21;4.50;;;2.47;;
6517;SDS011;3292;48.944;9.240;2023-04-12T09:09:53;3.57;;;2.33;;
6517;SDS011;3292;48.944;9.240;2023-04-12T09:12:21;2.93;;;2.57;;
6517;SDS011;3292;48.944;9.240;2023-04-12T09:14:51;4.70;;;2.67;;
6517;SDS011;3292;48.944;9.240;2023-04-12T09:17:32;3.93;;;2.53;;
6517;SDS011;3292;48.944;9.240;2023-04-12T09:20:00;3.37;;;2.80;;
6517;SDS011;3292;48.944;9.240;2023-04-12T09:22:31;3.13;;;2.83;;
6517;SDS011;3292;48.944;9.240;2023-04-12T09:25:01;3.80;;;3.50;;
6517;SDS011;3292;48.944;9.240;2023-04-12T09:27:28;4.20;;;3.13;;
6517;SDS011;3292;48.944;9.240;2023-04-12T09:30:05;5.80;;;3.00;;
6517;SDS011;3292;48.944;9.240;2023-04-12T09:32:32;6.23;;;2.90;;
6517;SDS011;3292;48.944;9.240;2023-04-12T09:34:59;4.30;;;2.90;;
6517;SDS011;3292;48.944;9.240;2023-04-12T09:37:28;3.80;;;2.87;;
6517;SDS011;3292;48.944;9.240;2023-04-12T09:39:57;2.90;;;2.70;;
6517;SDS011;3292;48.944;9.240;2023-04-12T09:42:27;3.87;;;3.03;;
6517;SDS011;3292;48.944;9.240;2023-04-12T09:44:54;3.13;;;2.70;;
6517;SDS011;3292;48.944;9.240;2023-04-12T09:47:22;3.00;;;2.70;;
6517;SDS011;3292;48.944;9.240;2023-04-12T09:50:01;3.33;;;2.40;;
6517;SDS011;3292;48.944;9.240;2023-04-12T09:52:34;4.17;;;3.20;;
6517;SDS011;3292;48.944;9.240;2023-04-12T09:55:01;4.37;;;3.60;;
6517;SDS011;3292;48.944;9.240;2023-04-12T09:57:32;5.53;;;2.90;;
6517;SDS011;3292;48.944;9.240;2023-04-12T09:59:59;3.50;;;2.90;;
6517;SDS011;3292;48.944;9.240;2023-04-12T10:02:35;3.33;;;3.07;;
6517;SDS011;3292;48.944;9.240;2023-04-12T10:05:03;3.50;;;3.20;;
6517;SDS011;3292;48.944;9.240;2023-04-12T10:07:33;5.23;;;3.20;;
6517;SDS011;3292;48.944;9.240;2023-04-12T10:10:01;5.77;;;3.17;;
6517;SDS011;3292;48.944;9.240;2023-04-12T10:12:32;4.77;;;2.90;;
6517;SDS011;3292;48.944;9.240;2023-04-12T10:15:01;4.60;;;3.47;;
6517;SDS011;3292;48.944;9.240;2023-04-12T10:17:30;9.37;;;4.40;;
6517;SDS011;3292;48.944;9.240;2023-04-12T10:20:00;3.90;;;3.10;;
6517;SDS011;3292;48.944;9.240;2023-04-12T10:22:28;4.07;;;2.70;;
6517;SDS011;3292;48.944;9.240;2023-04-12T10:24:54;3.63;;;3.00;;
6517;SDS011;3292;48.944;9.240;2023-04-12T10:27:25;4.13;;;2.40;;
6517;SDS011;3292;48.944;9.240;2023-04-12T10:29:54;5.70;;;2.63;;
6517;SDS011;3292;48.944;9.240;2023-04-12T10:32:44;3.80;;;2.40;;
6517;SDS011;3292;48.944;9.240;2023-04-12T10:35:12;3.23;;;2.70;;
6517;SDS011;3292;48.944;9.240;2023-04-12T10:37:57;4.93;;;2.73;;
6517;SDS011;3292;48.944;9.240;2023-04-12T10:40:26;4.07;;;2.40;;
6517;SDS011;3292;48.944;9.240;2023-04-12T10:45:53;3.77;;;2.27;;
6517;SDS011;3292;48.944;9.240;2023-04-12T10:48:30;3.10;;;2.30;;
6517;SDS011;3292;48.944;9.240;2023-04-12T10:51:12;3.77;;;2.10;;
6517;SDS011;3292;48.944;9.240;2023-04-12T10:53:41;3.57;;;2.80;;
6517;SDS011;3292;48.944;9.240;2023-04-12T10:59:02;3.17;;;2.60;;
6517;SDS011;3292;48.944;9.240;2023-04-12T11:01:30;4.07;;;2.30;;
6517;SDS011;3292;48.944;9.240;2023-04-12T11:04:07;2.43;;;2.23;;
6517;SDS011;3292;48.944;9.240;2023-04-12T11:06:47;3.03;;;2.03;;
6517;SDS011;3292;48.944;9.240;2023-04-12T11:09:23;2.43;;;2.03;;
6517;SDS011;3292;48.944;9.240;2023-04-12T11:11:55;2.33;;;1.83;;
6517;SDS011;3292;48.944;9.240;2023-04-12T11:14:27;4.20;;;2.53;;
6517;SDS011;3292;48.944;9.240;2023-04-12T11:19:48;6.00;;;3.60;;
6517;SDS011;3292;48.944;9.240;2023-04-12T11:22:17;4.17;;;2.57;;
6517;SDS011;3292;48.944;9.240;2023-04-12T11:24:45;2.80;;;2.47;;
6517;SDS011;3292;48.944;9.240;2023-04-12T11:27:14;4.17;;;2.80;;
6517;SDS011;3292;48.944;9.240;2023-04-12T11:29:41;2.77;;;2.30;;
6517;SDS011;3292;48.944;9.240;2023-04-12T11:32:09;2.13;;;1.80;;
6517;SDS011;3292;48.944;9.240;2023-04-12T11:34:39;2.60;;;2.10;;
6517;SDS011;3292;48.944;9.240;2023-04-12T11:37:07;2.93;;;1.90;;
6517;SDS011;3292;48.944;9.240;2023-04-12T11:39:35;4.13;;;2.47;;
6517;SDS011;3292;48.944;9.240;2023-04-12T11:42:05;3.63;;;1.70;;
6517;SDS011;3292;48.944;9.240;2023-04-12T11:44:33;3.93;;;2.47;;
6517;SDS011;3292;48.944;9.240;2023-04-12T11:47:01;3.33;;;1.90;;
6517;SDS011;3292;48.944;9.240;2023-04-12T11:49:29;2.40;;;1.50;;
6517;SDS011;3292;48.944;9.240;2023-04-12T11:52:01;2.10;;;1.90;;
6517;SDS011;3292;48.944;9.240;2023-04-12T11:54:29;2.10;;;1.80;;
6517;SDS011;3292;48.944;9.240;2023-04-12T11:56:58;1.70;;;1.60;;
6517;SDS011;3292;48.944;9.240;2023-04-12T11:59:32;3.33;;;1.60;;
6517;SDS011;3292;48.944;9.240;2023-04-12T12:02:00;1.67;;;1.50;;
6517;SDS011;3292;48.944;9.240;2023-04-12T12:04:27;2.33;;;1.80;;
6517;SDS011;3292;48.944;9.240;2023-04-12T12:06:55;2.37;;;1.50;;
6517;SDS011;3292;48.944;9.240;2023-04-12T12:09:24;2.27;;;1.40;;
6517;SDS011;3292;48.944;9.240;2023-04-12T12:11:52;1.87;;;1.67;;
6517;SDS011;3292;48.944;9.240;2023-04-12T12:14:20;2.30;;;2.10;;
6517;SDS011;3292;48.944;9.240;2023-04-12T12:16:51;1.93;;;1.73;;
6517;SDS011;3292;48.944;9.240;2023-04-12T12:19:27;2.53;;;1.50;;
6517;SDS011;3292;48.944;9.240;2023-04-12T12:22:04;2.47;;;1.63;;
6517;SDS011;3292;48.944;9.240;2023-04-12T12:24:50;1.70;;;1.60;;
6517;SDS011;3292;48.944;9.240;2023-04-12T12:27:18;1.70;;;1.60;;
6517;SDS011;3292;48.944;9.240;2023-04-12T12:29:50;2.13;;;1.43;;
6517;SDS011;3292;48.944;9.240;2023-04-12T12:32:18;2.43;;;1.70;;
6517;SDS011;3292;48.944;9.240;2023-04-12T12:34:53;2.47;;;1.80;;
6517;SDS011;3292;48.944;9.240;2023-04-12T12:37:25;2.47;;;1.70;;
6517;SDS011;3292;48.944;9.240;2023-04-12T12:40:00;2.43;;;1.57;;
6517;SDS011;3292;48.944;9.240;2023-04-12T12:42:32;2.80;;;1.83;;
6517;SDS011;3292;48.944;9.240;2023-04-12T12:44:59;2.53;;;1.57;;
6517;SDS011;3292;48.944;9.240;2023-04-12T12:47:28;2.07;;;1.67;;
6517;SDS011;3292;48.944;9.240;2023-04-12T12:49:56;1.73;;;1.60;;
6517;SDS011;3292;48.944;9.240;2023-04-12T12:52:23;2.77;;;2.10;;
6517;SDS011;3292;48.944;9.240;2023-04-12T12:54:50;2.13;;;1.93;;
6517;SDS011;3292;48.944;9.240;2023-04-12T12:57:18;1.67;;;1.50;;
6517;SDS011;3292;48.944;9.240;2023-04-12T12:59:45;2.30;;;1.60;;
6517;SDS011;3292;48.944;9.240;2023-04-12T13:02:11;2.43;;;1.30;;
6517;SDS011;3292;48.944;9.240;2023-04-12T13:04:39;1.63;;;1.40;;
6517;SDS011;3292;48.944;9.240;2023-04-12T13:07:06;1.73;;;1.43;;
6517;SDS011;3292;48.944;9.240;2023-04-12T13:09:33;1.73;;;1.30;;
6517;SDS011;3292;48.944;9.240;2023-04-12T13:12:00;1.63;;;1.50;;
6517;SDS011;3292;48.944;9.240;2023-04-12T13:14:29;1.40;;;1.20;;
6517;SDS011;3292;48.944;9.240;2023-04-12T13:16:55;1.53;;;1.30;;
6517;SDS011;3292;48.944;9.240;2023-04-12T13:19:22;2.20;;;1.37;;
6517;SDS011;3292;48.944;9.240;2023-04-12T13:21:49;2.27;;;1.50;;
6517;SDS011;3292;48.944;9.240;2023-04-12T13:24:16;1.80;;;1.57;;
6517;SDS011;3292;48.944;9.240;2023-04-12T13:26:43;2.93;;;1.57;;
6517;SDS011;3292;48.944;9.240;2023-04-12T13:29:10;1.73;;;1.60;;
6517;SDS011;3292;48.944;9.240;2023-04-12T13:31:38;3.40;;;1.50;;
6517;SDS011;3292;48.944;9.240;2023-04-12T13:34:05;2.00;;;1.60;;
6517;SDS011;3292;48.944;9.240;2023-04-12T13:36:31;1.53;;;1.43;;
6517;SDS011;3292;48.944;9.240;2023-04-12T13:38:58;2.33;;;1.40;;
6517;SDS011;3292;48.944;9.240;2023-04-12T13:41:25;1.40;;;1.30;;
6517;SDS011;3292;48.944;9.240;2023-04-12T13:43:52;1.67;;;1.30;;
6517;SDS011;3292;48.944;9.240;2023-04-12T13:46:19;2.37;;;1.40;;
6517;SDS011;3292;48.944;9.240;2023-04-12T13:48:47;2.53;;;1.60;;
6517;SDS011;3292;48.944;9.240;2023-04-12T13:51:15;1.90;;;1.50;;
6517;SDS011;3292;48.944;9.240;2023-04-12T13:53:42;2.90;;;1.87;;
6517;SDS011;3292;48.944;9.240;2023-04-12T13:56:09;1.73;;;1.50;;
6517;SDS011;3292;48.944;9.240;2023-04-12T13:58:36;3.00;;;1.30;;
6517;SDS011;3292;48.944;9.240;2023-04-12T14:01:04;1.53;;;1.43;;
6517;SDS011;3292;48.944;9.240;2023-04-12T14:03:31;2.57;;;1.47;;
6517;SDS011;3292;48.944;9.240;2023-04-12T14:05:59;2.47;;;1.67;;
6517;SDS011;3292;48.944;9.240;2023-04-12T14:08:27;1.40;;;1.30;;
6517;SDS011;3292;48.944;9.240;2023-04-12T14:10:54;1.63;;;1.23;;
6517;SDS011;3292;48.944;9.240;2023-04-12T14:13:21;3.60;;;1.70;;
6517;SDS011;3292;48.944;9.240;2023-04-12T14:15:48;3.40;;;1.60;;
6517;SDS011;3292;48.944;9.240;2023-04-12T14:18:16;1.60;;;1.50;;
6517;SDS011;3292;48.944;9.240;2023-04-12T14:20:43;2.40;;;1.47;;
6517;SDS011;3292;48.944;9.240;2023-04-12T14:23:15;2.70;;;1.80;;
6517;SDS011;3292;48.944;9.240;2023-04-12T14:25:42;1.60;;;1.50;;
6517;SDS011;3292;48.944;9.240;2023-04-12T14:28:09;1.93;;;1.40;;
6517;SDS011;3292;48.944;9.240;2023-04-12T14:30:41;1.50;;;1.40;;
6517;SDS011;3292;48.944;9.240;2023-04-12T14:33:07;1.60;;;1.50;;
6517;SDS011;3292;48.944;9.240;2023-04-12T14:35:34;1.73;;;1.63;;
6517;SDS011;3292;48.944;9.240;2023-04-12T14:38:01;1.60;;;1.50;;
6517;SDS011;3292;48.944;9.240;2023-04-12T14:40:31;3.10;;;1.50;;
6517;SDS011;3292;48.944;9.240;2023-04-12T14:42:58;1.73;;;1.63;;
6517;SDS011;3292;48.944;9.240;2023-04-12T14:45:25;1.60;;;1.50;;
6517;SDS011;3292;48.944;9.240;2023-04-12T14:47:52;1.73;;;1.40;;
6517;SDS011;3292;48.944;9.240;2023-04-12T14:50:19;1.80;;;1.50;;
6517;SDS011;3292;48.944;9.240;2023-04-12T14:52:46;1.70;;;1.40;;
6517;SDS011;3292;48.944;9.240;2023-04-12T14:55:13;1.50;;;1.40;;
6517;SDS011;3292;48.944;9.240;2023-04-12T14:57:42;1.70;;;1.40;;
6517;SDS011;3292;48.944;9.240;2023-04-12T15:00:09;2.70;;;1.40;;
6517;SDS011;3292;48.944;9.240;2023-04-12T15:02:39;1.60;;;1.50;;
6517;SDS011;3292;48.944;9.240;2023-04-12T15:05:08;1.57;;;1.47;;
6517;SDS011;3292;48.944;9.240;2023-04-12T15:07:35;3.27;;;1.40;;
6517;SDS011;3292;48.944;9.240;2023-04-12T15:10:02;1.73;;;1.50;;
6517;SDS011;3292;48.944;9.240;2023-04-12T15:12:30;3.83;;;1.47;;
6517;SDS011;3292;48.944;9.240;2023-04-12T15:15:00;1.53;;;1.30;;
6517;SDS011;3292;48.944;9.240;2023-04-12T15:17:27;4.10;;;1.40;;
6517;SDS011;3292;48.944;9.240;2023-04-12T15:19:56;1.30;;;1.20;;
6517;SDS011;3292;48.944;9.240;2023-04-12T15:22:23;1.77;;;1.10;;
6517;SDS011;3292;48.944;9.240;2023-04-12T15:24:50;1.40;;;1.10;;
6517;SDS011;3292;48.944;9.240;2023-04-12T15:27:17;1.30;;;1.20;;
6517;SDS011;3292;48.944;9.240;2023-04-12T15:29:45;1.13;;;1.10;;
6517;SDS011;3292;48.944;9.240;2023-04-12T15:32:13;1.40;;;1.30;;